Time;durP1;ratioP1;P1;durP2;ratioP2;P2;SDS_P1;SDS_P2;PMS_P1;PMS_P2;Temp;Humidity;BMP_temperature;BMP_pressure;BME280_temperature;BME280_humidity;BME280_pressure;Samples;Min_cycle;Max_cycle;Signal;HPM_P1;HPM_P2
2022/11/26 00:00:50;;;;;;;27.58;5.63;;;8.40;99.90;;;;;;5006934;28;20485;-61
2022/11/26 00:03:16;;;;;;;18.08;4.22;;;8.40;99.90;;;;;;5015441;28;20060;-60
2022/11/26 00:05:45;;;;;;;20.33;4.10;;;8.60;99.90;;;;;;5013247;28;20053;-61
2022/11/26 00:08:40;;;;;;;20.98;4.70;;;8.70;99.90;;;;;;5012348;28;20031;-61
2022/11/26 00:11:11;;;;;;;17.48;4.65;;;8.60;99.90;;;;;;5000789;28;20095;-62
2022/11/26 00:13:37;;;;;;;15.30;4.25;;;8.60;99.90;;;;;;5014399;28;20025;-61
2022/11/26 00:16:03;;;;;;;19.08;4.68;;;8.40;99.90;;;;;;5006755;28;20060;-61
2022/11/26 00:18:29;;;;;;;14.40;4.18;;;8.20;99.90;;;;;;5014778;28;20455;-61
2022/11/26 00:20:59;;;;;;;9.27;3.22;;;7.90;99.90;;;;;;5013727;28;20125;-60
2022/11/26 00:23:26;;;;;;;16.05;3.78;;;7.80;99.90;;;;;;5018981;28;20120;-61
2022/11/26 00:25:58;;;;;;;13.30;2.90;;;7.90;99.90;;;;;;5021321;28;20097;-60
2022/11/26 00:28:36;;;;;;;13.55;2.90;;;7.90;99.90;;;;;;5009701;28;20037;-60
2022/11/26 00:31:05;;;;;;;13.90;3.20;;;7.80;99.90;;;;;;5015844;28;20382;-60
2022/11/26 00:33:31;;;;;;;17.25;4.10;;;7.70;99.90;;;;;;5011044;28;20037;-60
2022/11/26 00:36:18;;;;;;;13.23;3.35;;;7.60;99.90;;;;;;5019784;28;20120;-60
2022/11/26 00:38:51;;;;;;;7.25;2.88;;;7.60;99.90;;;;;;5017454;28;20021;-60
2022/11/26 00:41:21;;;;;;;13.65;3.33;;;7.50;99.90;;;;;;5013998;28;20029;-60
2022/11/26 00:43:49;;;;;;;17.45;3.10;;;7.50;99.90;;;;;;4972421;28;1278187;-60
2022/11/26 00:46:17;;;;;;;17.65;3.92;;;7.40;99.90;;;;;;5013247;28;20074;-60
2022/11/26 00:48:43;;;;;;;16.08;3.25;;;7.40;99.90;;;;;;5015228;28;20117;-60
2022/11/26 00:51:17;;;;;;;21.80;3.05;;;7.60;99.90;;;;;;5014671;28;20116;-61
2022/11/26 00:53:44;;;;;;;13.52;2.95;;;7.80;99.90;;;;;;5012751;28;20072;-61
2022/11/26 00:56:19;;;;;;;16.05;3.00;;;7.70;99.90;;;;;;5026514;28;20110;-61
2022/11/26 00:58:46;;;;;;;13.18;2.40;;;7.60;99.90;;;;;;5011748;28;20474;-61
2022/11/26 01:01:18;;;;;;;19.00;3.78;;;7.50;99.90;;;;;;5018471;28;20086;-61
2022/11/26 01:03:44;;;;;;;11.82;3.35;;;7.40;99.90;;;;;;5016914;28;20028;-60
2022/11/26 01:06:22;;;;;;;13.35;3.00;;;7.40;99.90;;;;;;5015635;28;20037;-60
2022/11/26 01:08:48;;;;;;;12.70;2.22;;;7.30;99.90;;;;;;5015540;28;20049;-60
2022/11/26 01:11:20;;;;;;;16.52;2.20;;;7.20;99.90;;;;;;5017376;28;20398;-61
2022/11/26 01:13:47;;;;;;;10.55;2.20;;;7.20;99.90;;;;;;5015792;28;20037;-61
2022/11/26 01:16:22;;;;;;;14.82;3.08;;;7.20;99.90;;;;;;5020611;28;20401;-60
2022/11/26 01:18:50;;;;;;;13.13;2.72;;;7.30;99.90;;;;;;5013790;28;20034;-61
2022/11/26 01:21:16;;;;;;;15.68;2.42;;;7.30;99.90;;;;;;5017041;28;20083;-60
2022/11/26 01:23:42;;;;;;;10.25;2.13;;;7.30;99.90;;;;;;5015792;28;20052;-60
2022/11/26 01:26:20;;;;;;;13.40;2.15;;;7.30;99.90;;;;;;5023408;28;20486;-61
2022/11/26 01:28:46;;;;;;;11.23;2.30;;;7.30;99.90;;;;;;5018261;28;20051;-60
2022/11/26 01:31:17;;;;;;;15.55;2.63;;;7.40;99.90;;;;;;5016575;28;20061;-61
2022/11/26 01:33:44;;;;;;;13.35;2.58;;;7.50;99.90;;;;;;5022537;28;20033;-61
2022/11/26 01:36:34;;;;;;;11.25;2.00;;;7.60;99.90;;;;;;5010249;28;20041;-61
2022/11/26 01:39:21;;;;;;;9.82;2.08;;;7.60;99.90;;;;;;5006497;28;20033;-62
2022/11/26 01:42:19;;;;;;;12.38;2.90;;;7.60;99.90;;;;;;5021089;28;20026;-60
2022/11/26 01:44:44;;;;;;;12.18;2.60;;;7.60;99.90;;;;;;5014060;28;20497;-61
2022/11/26 01:47:25;;;;;;;15.02;1.88;;;7.50;99.90;;;;;;5011846;28;20129;-61
2022/11/26 01:50:30;;;;;;;7.35;1.45;;;7.70;99.90;;;;;;5017053;28;20033;-61
2022/11/26 01:53:09;;;;;;;10.20;2.03;;;7.70;99.90;;;;;;5011623;28;20104;-61
2022/11/26 01:55:48;;;;;;;10.43;1.95;;;7.70;99.90;;;;;;5007578;28;20449;-61
2022/11/26 01:58:17;;;;;;;13.02;2.45;;;7.70;99.90;;;;;;5007660;28;20385;-61
2022/11/26 02:00:43;;;;;;;11.82;2.22;;;7.70;99.90;;;;;;5017309;28;20037;-61
2022/11/26 02:03:09;;;;;;;8.82;1.98;;;7.60;99.90;;;;;;5016195;28;20026;-61
2022/11/26 02:05:49;;;;;;;17.23;2.70;;;7.50;99.90;;;;;;5011163;28;20045;-61
2022/11/26 02:08:15;;;;;;;13.55;2.58;;;7.50;99.90;;;;;;5013672;28;20030;-61
2022/11/26 02:10:41;;;;;;;13.20;2.83;;;7.50;99.90;;;;;;5024623;28;20038;-61
2022/11/26 02:13:07;;;;;;;10.10;3.80;;;7.50;99.90;;;;;;5013392;28;20057;-63
2022/11/26 02:15:45;;;;;;;10.95;4.05;;;7.50;99.90;;;;;;5014003;28;20421;-60
2022/11/26 02:18:11;;;;;;;12.68;3.90;;;7.50;99.90;;;;;;5016060;28;20036;-61
2022/11/26 02:20:47;;;;;;;14.80;5.10;;;7.40;99.90;;;;;;5016207;28;20393;-61
2022/11/26 02:23:36;;;;;;;18.33;5.10;;;7.40;99.90;;;;;;5007916;28;20033;-61
2022/11/26 02:26:01;;;;;;;9.15;3.80;;;7.40;99.90;;;;;;5010198;28;20497;-61
2022/11/26 02:29:07;;;;;;;14.52;4.75;;;7.40;99.90;;;;;;5003858;28;20482;-61
2022/11/26 02:31:47;;;;;;;10.85;4.30;;;7.50;99.90;;;;;;5008741;28;20567;-61
2022/11/26 02:34:17;;;;;;;13.30;4.30;;;7.40;99.90;;;;;;5004636;28;20036;-61
2022/11/26 02:36:51;;;;;;;11.82;4.10;;;7.30;99.90;;;;;;5011142;28;20026;-61
2022/11/26 02:39:20;;;;;;;12.95;4.82;;;7.20;99.90;;;;;;5012345;28;20030;-61
2022/11/26 02:41:50;;;;;;;15.25;4.78;;;7.20;99.90;;;;;;5010643;28;20034;-61
2022/11/26 02:44:21;;;;;;;12.93;4.32;;;7.10;99.90;;;;;;5013523;28;20081;-61
2022/11/26 02:46:51;;;;;;;10.23;4.68;;;7.10;99.90;;;;;;5009426;28;20500;-61
2022/11/26 02:49:20;;;;;;;15.48;5.07;;;7.00;99.90;;;;;;5017122;28;20029;-61
2022/11/26 02:51:55;;;;;;;10.18;5.03;;;7.00;99.90;;;;;;5015029;28;20028;-61
2022/11/26 02:54:23;;;;;;;13.45;5.00;;;7.00;99.90;;;;;;5000267;28;20409;-61
2022/11/26 02:56:50;;;;;;;15.70;5.40;;;6.90;99.90;;;;;;5019847;28;20124;-61
2022/11/26 02:59:16;;;;;;;13.95;5.13;;;6.90;99.90;;;;;;5009098;28;20033;-61
2022/11/26 03:01:47;;;;;;;15.02;5.20;;;6.80;99.90;;;;;;5020298;28;20032;-62
2022/11/26 03:04:29;;;;;;;12.55;4.97;;;6.80;99.90;;;;;;5003659;28;20073;-61
2022/11/26 03:06:57;;;;;;;10.90;5.20;;;6.70;99.90;;;;;;5017332;28;20033;-60
2022/11/26 03:09:23;;;;;;;10.95;4.82;;;6.70;99.90;;;;;;5010901;28;20022;-61
2022/11/26 03:11:49;;;;;;;13.88;4.88;;;6.70;99.90;;;;;;5013119;28;20030;-61
2022/11/26 03:14:15;;;;;;;14.45;5.93;;;6.60;99.90;;;;;;5010109;28;20104;-59
2022/11/26 03:16:40;;;;;;;10.75;4.70;;;6.60;99.90;;;;;;5009314;28;20034;-62
2022/11/26 03:19:06;;;;;;;15.75;5.68;;;6.50;99.90;;;;;;5012365;28;20098;-59
2022/11/26 03:21:32;;;;;;;12.65;6.18;;;6.50;99.90;;;;;;5011766;28;20095;-59
2022/11/26 03:23:58;;;;;;;12.85;5.72;;;6.50;99.90;;;;;;5015334;28;20036;-61
2022/11/26 03:26:24;;;;;;;14.00;5.70;;;6.50;99.90;;;;;;5011450;28;20045;-62
2022/11/26 03:28:50;;;;;;;18.02;6.15;;;6.40;99.90;;;;;;5016204;28;20018;-61
2022/11/26 03:31:15;;;;;;;11.38;5.05;;;6.40;99.90;;;;;;5009336;28;20121;-61
2022/11/26 03:33:41;;;;;;;13.40;6.65;;;6.40;99.90;;;;;;5010883;28;20045;-60
2022/11/26 03:36:07;;;;;;;13.23;5.95;;;6.40;99.90;;;;;;5012850;28;20037;-61
2022/11/26 03:38:33;;;;;;;13.40;6.07;;;6.50;99.90;;;;;;5010102;28;20064;-61
2022/11/26 03:41:01;;;;;;;11.70;6.38;;;6.40;99.90;;;;;;5022568;28;20819;-61
2022/11/26 03:43:27;;;;;;;14.65;5.45;;;6.40;99.90;;;;;;5012285;28;20530;-61
2022/11/26 03:45:53;;;;;;;11.52;5.35;;;6.40;99.90;;;;;;5010437;28;20065;-60
2022/11/26 03:48:19;;;;;;;17.95;5.50;;;6.40;99.90;;;;;;5015205;28;20032;-60
2022/11/26 03:50:45;;;;;;;16.02;6.40;;;6.40;99.90;;;;;;5009011;28;20025;-61
2022/11/26 03:53:10;;;;;;;14.25;6.00;;;6.40;99.90;;;;;;5009620;28;20041;-61
2022/11/26 03:55:36;;;;;;;12.73;6.00;;;6.40;99.90;;;;;;5013493;28;20028;-61
2022/11/26 03:58:02;;;;;;;13.68;6.43;;;6.30;99.90;;;;;;5009325;28;20034;-61
2022/11/26 04:00:28;;;;;;;13.93;6.75;;;6.30;99.90;;;;;;5011575;28;20029;-61
2022/11/26 04:02:54;;;;;;;17.33;5.70;;;6.20;99.90;;;;;;5023889;28;20381;-60
2022/11/26 04:05:20;;;;;;;13.45;5.18;;;6.20;99.90;;;;;;5014109;28;20507;-60
2022/11/26 04:07:45;;;;;;;12.85;5.43;;;6.20;99.90;;;;;;5012955;28;20116;-60
2022/11/26 04:10:11;;;;;;;15.77;6.47;;;6.30;99.90;;;;;;5019379;28;20389;-61
2022/11/26 04:12:37;;;;;;;17.65;5.97;;;6.20;99.90;;;;;;5019252;28;20112;-61
2022/11/26 04:15:03;;;;;;;17.30;6.13;;;6.20;99.90;;;;;;5024284;28;20112;-61
2022/11/26 04:17:29;;;;;;;14.13;5.70;;;6.20;99.90;;;;;;5015237;28;20022;-61
2022/11/26 04:19:55;;;;;;;13.30;5.80;;;6.10;99.90;;;;;;5012436;28;20096;-60
2022/11/26 04:22:20;;;;;;;14.32;5.95;;;6.10;99.90;;;;;;5017017;28;20064;-62
2022/11/26 04:24:46;;;;;;;15.95;5.85;;;6.00;99.90;;;;;;5014435;28;20078;-62
2022/11/26 04:27:12;;;;;;;10.32;5.45;;;6.00;99.90;;;;;;5019096;28;20069;-61
2022/11/26 04:29:38;;;;;;;14.60;6.00;;;6.00;99.90;;;;;;5004095;28;20029;-61
2022/11/26 04:32:04;;;;;;;16.42;5.43;;;6.10;99.90;;;;;;5011173;28;20034;-61
2022/11/26 04:34:30;;;;;;;15.27;6.07;;;6.10;99.90;;;;;;5007772;28;20028;-60
2022/11/26 04:36:56;;;;;;;12.30;5.90;;;6.10;99.90;;;;;;5011716;28;20026;-61
2022/11/26 04:39:21;;;;;;;15.98;5.18;;;6.00;99.90;;;;;;5016728;28;20385;-61
2022/11/26 04:41:47;;;;;;;10.73;5.13;;;6.10;99.90;;;;;;5017881;23;20061;-59
2022/11/26 04:44:13;;;;;;;12.00;5.75;;;6.10;99.90;;;;;;4975212;28;20495;-59
2022/11/26 04:46:39;;;;;;;15.93;6.72;;;6.20;99.90;;;;;;4975706;28;20042;-60
2022/11/26 04:49:04;;;;;;;10.73;4.80;;;6.20;99.90;;;;;;4971598;28;20380;-59
2022/11/26 04:51:30;;;;;;;11.55;5.35;;;6.20;99.90;;;;;;4971167;28;20166;-59
2022/11/26 04:53:56;;;;;;;11.60;4.65;;;6.30;99.90;;;;;;4981057;28;20352;-59
2022/11/26 04:56:22;;;;;;;17.23;6.18;;;6.30;99.90;;;;;;4976630;28;20042;-59
2022/11/26 04:58:48;;;;;;;14.73;5.95;;;6.30;99.90;;;;;;4975139;28;20026;-60
2022/11/26 05:01:14;;;;;;;15.25;5.80;;;6.40;99.90;;;;;;4969726;28;20050;-60
2022/11/26 05:03:40;;;;;;;13.57;5.47;;;6.40;99.90;;;;;;4987475;28;20470;-60
2022/11/26 05:06:06;;;;;;;16.30;6.07;;;6.40;99.90;;;;;;4982319;28;20101;-58
2022/11/26 05:08:32;;;;;;;16.45;5.78;;;6.40;99.90;;;;;;4975029;28;20046;-59
2022/11/26 05:10:59;;;;;;;13.05;5.80;;;6.50;99.90;;;;;;4977904;28;20039;-59
2022/11/26 05:13:25;;;;;;;15.90;5.82;;;6.50;99.90;;;;;;4977776;28;20390;-59
2022/11/26 05:15:51;;;;;;;12.05;5.65;;;6.50;99.90;;;;;;4978888;28;20031;-58
2022/11/26 05:18:17;;;;;;;11.90;4.63;;;6.60;99.90;;;;;;4976133;28;20035;-59
2022/11/26 05:20:43;;;;;;;9.75;1.60;;;6.70;99.90;;;;;;4987705;28;20070;-60
2022/11/26 05:23:08;;;;;;;13.93;2.28;;;7.30;99.90;;;;;;4981088;28;20041;-59
2022/11/26 05:25:34;;;;;;;8.82;2.28;;;7.90;99.90;;;;;;4981494;28;20050;-58
2022/11/26 05:28:00;;;;;;;15.50;2.63;;;8.40;99.90;;;;;;4973477;28;20474;-60
2022/11/26 05:30:25;;;;;;;14.43;1.65;;;8.70;99.90;;;;;;4980179;28;20026;-59
2022/11/26 05:32:51;;;;;;;11.73;2.58;;;8.90;99.90;;;;;;4978557;28;20104;-60
2022/11/26 05:35:17;;;;;;;10.68;1.50;;;9.00;99.90;;;;;;4981913;28;20038;-60
2022/11/26 05:37:43;;;;;;;9.90;1.50;;;9.20;99.90;;;;;;4974984;28;20166;-58
2022/11/26 05:40:09;;;;;;;7.82;1.58;;;9.20;99.90;;;;;;4978695;28;20122;-60
2022/11/26 05:42:35;;;;;;;7.07;2.13;;;9.30;99.90;;;;;;4976949;28;20046;-59
2022/11/26 05:45:01;;;;;;;17.30;2.63;;;9.30;99.90;;;;;;4984644;28;20022;-58
2022/11/26 05:47:26;;;;;;;11.05;1.45;;;9.20;99.90;;;;;;4977972;28;20117;-60
2022/11/26 05:49:52;;;;;;;10.50;1.17;;;9.10;99.90;;;;;;4973092;28;20039;-59
2022/11/26 05:52:18;;;;;;;5.63;0.88;;;8.90;99.90;;;;;;4984030;28;20034;-59
2022/11/26 05:54:44;;;;;;;9.90;1.38;;;8.80;99.90;;;;;;4979533;28;20086;-60
2022/11/26 05:57:10;;;;;;;10.55;0.95;;;8.70;99.90;;;;;;4985350;28;20418;-60
2022/11/26 05:59:35;;;;;;;9.02;2.08;;;8.70;99.90;;;;;;4979117;28;20371;-59
2022/11/26 06:02:01;;;;;;;12.68;1.40;;;8.80;99.90;;;;;;4982640;28;20068;-59
2022/11/26 06:04:27;;;;;;;11.50;1.45;;;8.80;99.90;;;;;;4971630;28;20066;-60
2022/11/26 06:06:53;;;;;;;15.32;1.55;;;8.70;99.90;;;;;;4978942;28;20085;-59
2022/11/26 06:09:19;;;;;;;10.57;2.25;;;8.70;99.90;;;;;;4975698;28;20030;-59
2022/11/26 06:11:45;;;;;;;22.08;1.33;;;8.50;99.90;;;;;;4974610;28;20134;-59
2022/11/26 06:14:11;;;;;;;8.85;0.88;;;8.50;99.90;;;;;;4978978;28;20030;-59
2022/11/26 06:16:36;;;;;;;11.20;1.10;;;8.40;99.90;;;;;;4980654;28;20026;-58
2022/11/26 06:19:02;;;;;;;14.98;1.70;;;8.50;99.90;;;;;;4978494;28;20065;-60
2022/11/26 06:21:28;;;;;;;11.75;1.70;;;8.50;99.90;;;;;;4970982;28;20510;-59
2022/11/26 06:23:55;;;;;;;10.82;1.75;;;8.70;99.90;;;;;;4972425;28;20015;-59
2022/11/26 06:26:20;;;;;;;10.18;1.95;;;8.70;99.90;;;;;;4973811;28;20073;-60
2022/11/26 06:28:46;;;;;;;4.82;1.25;;;8.70;99.90;;;;;;4978355;28;20066;-59
2022/11/26 06:31:12;;;;;;;6.00;1.30;;;8.80;99.90;;;;;;4967300;28;20050;-59
2022/11/26 06:33:37;;;;;;;8.75;2.42;;;8.80;99.90;;;;;;4978696;28;20026;-59
2022/11/26 06:36:05;;;;;;;12.48;1.65;;;8.80;99.90;;;;;;4987042;28;20053;-60
2022/11/26 06:38:31;;;;;;;13.45;2.58;;;8.80;99.90;;;;;;4974766;28;20074;-59
2022/11/26 06:41:02;;;;;;;11.18;1.50;;;8.80;99.90;;;;;;4970607;28;20023;-59
2022/11/26 06:43:28;;;;;;;6.85;1.88;;;8.70;99.90;;;;;;4974090;28;20046;-60
2022/11/26 06:45:54;;;;;;;9.95;1.30;;;8.80;99.90;;;;;;4970110;28;20038;-59
2022/11/26 06:48:24;;;;;;;14.45;1.35;;;8.90;99.90;;;;;;4972154;28;20086;-60
2022/11/26 06:50:51;;;;;;;13.93;1.75;;;9.00;99.90;;;;;;4968762;28;20031;-60
2022/11/26 06:53:17;;;;;;;17.95;1.65;;;9.10;99.90;;;;;;4973880;28;20027;-61
2022/11/26 06:55:42;;;;;;;10.20;1.58;;;9.20;99.90;;;;;;4976759;28;20037;-60
2022/11/26 06:58:08;;;;;;;14.52;1.80;;;9.20;99.90;;;;;;4970343;28;20138;-60
2022/11/26 07:00:34;;;;;;;16.58;2.70;;;9.30;99.90;;;;;;4976260;28;20062;-59
2022/11/26 07:03:00;;;;;;;18.15;1.70;;;9.40;99.90;;;;;;4965729;28;20031;-59
2022/11/26 07:05:25;;;;;;;15.40;2.00;;;9.50;99.90;;;;;;4969974;28;20034;-59
2022/11/26 07:07:51;;;;;;;18.42;2.67;;;9.70;99.90;;;;;;4970386;28;20540;-59
2022/11/26 07:10:17;;;;;;;15.02;3.60;;;9.70;99.90;;;;;;4969710;28;20060;-60
2022/11/26 07:12:43;;;;;;;21.90;2.95;;;9.80;99.90;;;;;;4979210;28;20046;-60
2022/11/26 07:15:09;;;;;;;19.23;1.77;;;9.90;99.90;;;;;;4968925;28;20422;-60
2022/11/26 07:17:35;;;;;;;13.68;2.15;;;9.90;99.90;;;;;;4975394;28;20113;-60
2022/11/26 07:20:00;;;;;;;12.43;2.17;;;9.80;99.90;;;;;;4973590;28;20549;-59
2022/11/26 07:22:26;;;;;;;18.27;3.35;;;9.80;99.90;;;;;;4977659;28;20034;-60
2022/11/26 07:24:52;;;;;;;15.55;2.20;;;9.80;99.90;;;;;;4978197;28;20030;-60
2022/11/26 07:27:18;;;;;;;11.90;1.52;;;9.90;99.90;;;;;;4970229;28;20035;-60
2022/11/26 07:29:43;;;;;;;9.30;1.55;;;9.90;99.90;;;;;;4973489;28;20023;-60
2022/11/26 07:32:09;;;;;;;11.20;1.75;;;9.90;99.90;;;;;;4965668;28;20045;-59
2022/11/26 07:34:35;;;;;;;14.07;2.08;;;9.80;99.90;;;;;;4973151;28;20030;-60
2022/11/26 07:37:01;;;;;;;22.00;3.38;;;9.80;99.90;;;;;;4973614;28;20026;-59
2022/11/26 07:39:26;;;;;;;11.73;2.22;;;9.80;99.90;;;;;;4971279;28;20046;-59
2022/11/26 07:41:52;;;;;;;9.98;1.95;;;9.80;99.90;;;;;;4976252;28;20050;-59
2022/11/26 07:44:18;;;;;;;6.57;1.85;;;9.80;99.90;;;;;;4972961;28;20428;-59
2022/11/26 07:46:44;;;;;;;17.10;1.75;;;9.90;99.90;;;;;;4975842;28;20046;-60
2022/11/26 07:49:09;;;;;;;15.77;1.60;;;9.80;99.90;;;;;;4967758;28;20360;-60
2022/11/26 07:51:35;;;;;;;13.23;2.22;;;10.00;99.90;;;;;;4974421;28;20585;-60
2022/11/26 07:54:05;;;;;;;11.90;1.65;;;10.00;99.90;;;;;;4970557;28;20121;-60
2022/11/26 07:56:31;;;;;;;12.30;1.45;;;10.00;99.90;;;;;;4966592;28;20048;-60
2022/11/26 07:58:57;;;;;;;10.50;1.45;;;10.10;99.90;;;;;;4975306;28;20460;-60
2022/11/26 08:01:28;;;;;;;19.23;3.22;;;10.10;99.90;;;;;;4974264;28;20054;-60
2022/11/26 08:03:55;;;;;;;11.20;1.30;;;10.20;99.90;;;;;;4971177;28;20038;-59
2022/11/26 08:06:23;;;;;;;9.70;1.35;;;10.30;99.90;;;;;;4974408;28;20498;-59
2022/11/26 08:08:49;;;;;;;18.25;3.03;;;10.40;99.90;;;;;;4974454;28;20033;-59
2022/11/26 08:11:21;;;;;;;15.70;1.05;;;10.50;99.90;;;;;;4977739;28;20066;-59
2022/11/26 08:13:51;;;;;;;12.13;2.08;;;10.50;99.90;;;;;;4974636;28;20018;-60
2022/11/26 08:16:16;;;;;;;9.82;1.75;;;10.60;99.90;;;;;;4972389;28;20038;-60
2022/11/26 08:18:42;;;;;;;15.45;1.65;;;10.60;99.90;;;;;;4970915;28;20037;-59
2022/11/26 08:21:08;;;;;;;11.82;2.42;;;10.60;99.90;;;;;;4974699;28;20039;-60
2022/11/26 08:23:34;;;;;;;17.75;1.75;;;10.60;99.90;;;;;;4972299;28;20471;-59
2022/11/26 08:26:10;;;;;;;13.82;2.17;;;10.60;99.90;;;;;;4969721;28;20173;-59
2022/11/26 08:28:36;;;;;;;11.55;1.88;;;10.70;99.90;;;;;;4976307;28;20035;-60
2022/11/26 08:31:05;;;;;;;11.75;1.88;;;10.80;99.90;;;;;;4981595;28;20033;-60
2022/11/26 08:33:31;;;;;;;10.88;2.05;;;10.90;99.90;;;;;;4974289;28;20035;-60
2022/11/26 08:35:57;;;;;;;12.93;3.05;;;10.90;99.90;;;;;;4974997;28;20026;-60
2022/11/26 08:38:23;;;;;;;9.27;1.88;;;11.00;99.90;;;;;;4972249;28;20030;-60
2022/11/26 08:40:49;;;;;;;15.35;2.88;;;11.00;99.90;;;;;;4971810;28;20105;-60
2022/11/26 08:43:15;;;;;;;11.07;3.00;;;11.10;99.90;;;;;;4968357;28;20130;-60
2022/11/26 08:45:41;;;;;;;12.45;2.00;;;11.10;99.90;;;;;;4973599;28;20027;-59
2022/11/26 08:48:07;;;;;;;15.88;2.40;;;11.00;99.90;;;;;;4981223;28;20038;-59
2022/11/26 08:50:33;;;;;;;12.73;1.80;;;11.00;99.90;;;;;;4965251;28;20034;-59
2022/11/26 08:52:59;;;;;;;24.30;3.35;;;11.00;99.90;;;;;;4972911;28;20026;-59
2022/11/26 08:55:24;;;;;;;9.98;1.85;;;11.00;99.90;;;;;;4979479;28;21022;-59
2022/11/26 08:57:50;;;;;;;21.90;3.40;;;11.10;99.90;;;;;;4979135;28;20109;-60
2022/11/26 09:00:16;;;;;;;9.20;1.70;;;11.10;99.90;;;;;;4977504;28;20034;-60
2022/11/26 09:02:42;;;;;;;13.48;1.85;;;11.10;99.90;;;;;;4984945;28;20087;-60
2022/11/26 09:05:08;;;;;;;10.32;1.42;;;11.20;99.90;;;;;;4981424;28;20487;-60
2022/11/26 09:07:34;;;;;;;13.73;2.90;;;11.30;99.90;;;;;;4978887;28;20109;-59
2022/11/26 09:09:59;;;;;;;12.63;1.50;;;11.30;99.90;;;;;;4972587;28;20442;-62
2022/11/26 09:12:25;;;;;;;10.70;1.80;;;11.40;99.90;;;;;;4976951;28;20043;-59
2022/11/26 09:14:51;;;;;;;17.58;2.20;;;11.40;99.90;;;;;;4981044;28;20045;-59
2022/11/26 09:17:17;;;;;;;12.05;1.85;;;11.50;99.90;;;;;;4981625;28;20546;-60
2022/11/26 09:19:42;;;;;;;19.73;2.22;;;11.60;99.90;;;;;;4973207;28;20038;-60
2022/11/26 09:22:08;;;;;;;11.27;2.20;;;11.60;99.90;;;;;;4971663;28;20031;-60
2022/11/26 09:24:34;;;;;;;14.25;1.95;;;11.50;99.90;;;;;;4973546;28;20026;-60
2022/11/26 09:27:00;;;;;;;14.45;2.08;;;11.50;99.90;;;;;;4976904;28;20061;-61
2022/11/26 09:29:25;;;;;;;11.55;1.65;;;11.50;99.90;;;;;;4979741;28;20471;-62
2022/11/26 09:31:51;;;;;;;10.95;1.75;;;11.60;99.90;;;;;;4975019;28;20081;-61
2022/11/26 09:34:17;;;;;;;18.08;1.50;;;11.60;99.90;;;;;;4972565;28;20027;-62
2022/11/26 09:36:43;;;;;;;7.90;2.15;;;11.60;99.90;;;;;;4983601;28;20402;-61
2022/11/26 09:39:11;;;;;;;9.38;1.42;;;11.70;99.90;;;;;;4968633;28;20384;-61
2022/11/26 09:41:57;;;;;;;8.85;1.70;;;11.70;99.90;;;;;;4980649;28;20037;-63
2022/11/26 09:44:53;;;;;;;12.32;1.77;;;11.70;99.90;;;;;;4969686;28;20031;-64
2022/11/26 09:47:27;;;;;;;12.80;3.13;;;11.80;99.90;;;;;;4966333;28;20039;-63
2022/11/26 09:50:11;;;;;;;11.18;1.33;;;11.90;99.90;;;;;;4978558;28;20031;-63
2022/11/26 09:52:54;;;;;;;12.68;2.25;;;12.10;99.90;;;;;;4971507;28;20030;-63
2022/11/26 09:55:33;;;;;;;9.45;1.50;;;12.20;99.90;;;;;;4971245;28;20502;-62
2022/11/26 09:58:19;;;;;;;11.05;1.40;;;12.20;99.90;;;;;;4971194;28;20027;-64
2022/11/26 10:00:51;;;;;;;13.77;1.90;;;12.20;99.90;;;;;;4986194;28;20027;-63
2022/11/26 10:03:24;;;;;;;11.07;2.78;;;12.20;99.90;;;;;;4964059;28;20035;-63
2022/11/26 10:06:24;;;;;;;10.57;1.95;;;12.20;99.90;;;;;;4968528;28;20048;-65
2022/11/26 10:09:18;;;;;;;16.23;1.98;;;12.30;99.90;;;;;;4969467;28;20045;-64
2022/11/26 10:11:48;;;;;;;8.75;2.15;;;12.40;99.90;;;;;;4970121;28;20061;-64
2022/11/26 10:15:00;;;;;;;10.10;1.58;;;12.40;99.90;;;;;;4986606;28;20439;-63
2022/11/26 10:18:06;;;;;;;16.23;2.35;;;12.50;99.90;;;;;;4960202;28;20049;-63
2022/11/26 10:20:38;;;;;;;9.82;1.90;;;12.50;99.90;;;;;;4967890;28;20039;-64
2022/11/26 10:23:09;;;;;;;8.02;2.30;;;12.50;99.90;;;;;;4982240;28;20026;-64
2022/11/26 10:25:42;;;;;;;8.38;2.00;;;12.60;99.90;;;;;;4975571;28;20529;-63
2022/11/26 10:28:21;;;;;;;7.05;1.67;;;12.60;99.90;;;;;;4975862;28;20113;-62
2022/11/26 10:31:02;;;;;;;12.00;2.03;;;12.60;99.90;;;;;;4976888;28;20487;-62
2022/11/26 10:33:36;;;;;;;14.35;1.33;;;12.60;99.90;;;;;;4980717;28;20031;-63
2022/11/26 10:36:07;;;;;;;17.02;1.98;;;12.70;99.90;;;;;;4967553;28;20038;-63
2022/11/26 10:38:33;;;;;;;7.30;1.23;;;12.70;99.90;;;;;;4980836;28;20027;-62
2022/11/26 10:40:59;;;;;;;9.65;2.55;;;12.80;99.90;;;;;;4982848;28;20066;-64
2022/11/26 10:43:25;;;;;;;9.07;1.30;;;12.80;99.90;;;;;;4988076;28;21092;-64
2022/11/26 10:45:55;;;;;;;18.35;2.30;;;12.90;99.90;;;;;;4988624;28;20042;-63
2022/11/26 10:48:31;;;;;;;11.43;2.50;;;13.00;99.90;;;;;;4974835;28;20037;-63
2022/11/26 10:51:05;;;;;;;10.20;1.65;;;13.00;99.90;;;;;;4990767;28;20085;-62
2022/11/26 10:53:47;;;;;;;4.03;1.35;;;13.00;99.90;;;;;;4985243;28;20034;-62
2022/11/26 10:56:18;;;;;;;9.38;1.65;;;13.10;99.90;;;;;;4985436;28;20388;-63
2022/11/26 10:58:46;;;;;;;12.43;2.38;;;13.20;99.90;;;;;;4978158;28;20387;-62
2022/11/26 11:01:14;;;;;;;11.75;1.73;;;13.20;99.90;;;;;;4984017;28;20034;-63
2022/11/26 11:03:52;;;;;;;10.40;1.83;;;13.20;99.90;;;;;;4977915;28;20101;-62
2022/11/26 11:06:18;;;;;;;7.38;1.55;;;13.10;99.90;;;;;;4978283;28;20459;-62
2022/11/26 11:08:45;;;;;;;11.20;1.98;;;13.20;99.90;;;;;;4975131;28;20039;-63
2022/11/26 11:11:22;;;;;;;10.55;1.70;;;13.20;99.90;;;;;;4972152;28;20068;-63
2022/11/26 11:13:48;;;;;;;6.28;2.42;;;13.10;99.90;;;;;;4973106;28;20031;-63
2022/11/26 11:16:30;;;;;;;10.07;1.48;;;13.20;99.90;;;;;;4981157;28;20061;-63
2022/11/26 11:18:59;;;;;;;10.38;1.65;;;13.20;99.90;;;;;;4987889;28;20109;-64
2022/11/26 11:21:33;;;;;;;8.30;1.42;;;13.30;99.90;;;;;;4982462;28;20423;-63
2022/11/26 11:24:25;;;;;;;6.97;0.90;;;13.40;99.90;;;;;;4975627;28;20033;-63
2022/11/26 11:26:55;;;;;;;9.95;1.65;;;13.50;99.90;;;;;;4979451;28;20431;-63
2022/11/26 11:29:35;;;;;;;12.40;2.80;;;13.50;99.90;;;;;;4987915;28;20022;-63
2022/11/26 11:32:08;;;;;;;11.15;1.70;;;13.60;99.90;;;;;;4973706;28;20026;-63
2022/11/26 11:34:37;;;;;;;7.65;1.60;;;13.60;99.90;;;;;;4973862;28;20027;-63
2022/11/26 11:37:13;;;;;;;10.15;1.80;;;13.60;99.90;;;;;;4982273;28;20073;-64
2022/11/26 11:39:39;;;;;;;8.88;1.70;;;13.60;99.90;;;;;;4968351;28;20030;-62
2022/11/26 11:42:39;;;;;;;5.68;1.48;;;13.70;99.90;;;;;;4978376;28;20427;-62
2022/11/26 11:45:22;;;;;;;7.30;1.50;;;13.70;99.90;;;;;;4969181;28;20517;-63
2022/11/26 11:47:51;;;;;;;6.70;1.98;;;13.60;99.90;;;;;;4965235;28;20041;-61
2022/11/26 11:50:32;;;;;;;10.15;1.95;;;13.50;99.90;;;;;;4981225;28;20028;-62
2022/11/26 11:53:23;;;;;;;5.97;1.17;;;13.50;99.90;;;;;;4976083;28;20035;-63
2022/11/26 11:56:22;;;;;;;14.35;1.70;;;13.40;99.90;;;;;;4974752;28;20505;-63
2022/11/26 11:59:05;;;;;;;8.15;1.58;;;13.40;99.90;;;;;;4977660;28;20027;-63
2022/11/26 12:01:43;;;;;;;5.57;1.05;;;13.30;99.90;;;;;;4968327;28;20475;-63
2022/11/26 12:04:43;;;;;;;13.45;1.30;;;13.20;99.90;;;;;;4973578;28;20034;-64
2022/11/26 12:07:38;;;;;;;5.82;1.90;;;13.30;99.90;;;;;;4972495;28;20509;-63
2022/11/26 12:10:22;;;;;;;12.07;1.45;;;13.30;99.90;;;;;;4959019;28;20458;-63
2022/11/26 12:12:59;;;;;;;11.15;1.20;;;13.40;99.90;;;;;;4975657;28;20022;-62
2022/11/26 12:15:38;;;;;;;6.85;1.60;;;13.50;99.90;;;;;;4970801;28;20035;-63
2022/11/26 12:18:38;;;;;;;9.23;1.17;;;13.60;99.90;;;;;;4984971;28;20422;-63
2022/11/26 12:21:11;;;;;;;6.80;1.73;;;13.60;99.90;;;;;;4989269;28;20093;-62
2022/11/26 12:23:54;;;;;;;15.77;2.13;;;13.50;99.90;;;;;;4976708;28;20023;-62
2022/11/26 12:26:27;;;;;;;7.93;1.42;;;13.50;99.90;;;;;;4984626;28;20042;-63
2022/11/26 12:29:02;;;;;;;8.40;1.25;;;13.50;99.90;;;;;;4980984;28;20556;-63
2022/11/26 12:31:49;;;;;;;9.73;1.45;;;13.50;99.90;;;;;;4982708;28;20090;-63
2022/11/26 12:34:15;;;;;;;11.88;2.65;;;13.40;99.90;;;;;;4972521;28;20543;-62
2022/11/26 12:36:49;;;;;;;9.77;1.70;;;13.50;99.90;;;;;;4989606;28;20114;-63
2022/11/26 12:39:29;;;;;;;9.00;0.93;;;13.40;99.90;;;;;;4972732;28;20089;-63
2022/11/26 12:42:07;;;;;;;7.35;1.13;;;13.30;99.90;;;;;;4987388;28;20498;-63
2022/11/26 12:44:38;;;;;;;10.25;1.90;;;13.20;99.90;;;;;;4981555;28;20130;-62
2022/11/26 12:47:32;;;;;;;5.60;1.80;;;13.20;99.90;;;;;;4976126;28;20042;-63
2022/11/26 12:50:15;;;;;;;10.55;0.98;;;13.10;99.90;;;;;;4981331;28;20029;-63
2022/11/26 12:53:07;;;;;;;14.93;2.45;;;13.00;99.90;;;;;;4975694;28;20105;-63
2022/11/26 12:55:52;;;;;;;12.25;2.15;;;13.00;99.90;;;;;;4984491;28;20065;-63
2022/11/26 12:58:42;;;;;;;7.93;1.90;;;13.00;99.90;;;;;;4960986;28;20027;-63
2022/11/26 13:01:10;;;;;;;8.40;1.30;;;13.10;99.90;;;;;;4974876;28;20505;-62
2022/11/26 13:03:36;;;;;;;4.63;1.30;;;13.10;99.90;;;;;;4976102;28;20031;-62